Front Thor — V7SL4 — position and weather

sailwx.info

Track history (hours):
 
Tides and Currents Weather Stations Pressure Air Temp Water Temp Dewpoint Dewpoint Depression Visibility Wind Speed Wind Dir Waves Ship Positions

Front Thor

Last reported at 2018-May-19 22:17 UTC. Time now 2018-May-21 06:36 UTC.
Position N 36°14' W 023°50'.

Length 275 m; draft 16.6 m.

Type: Tanker. MMSI: 538003675.

Date/timePositionNaut miles runAvg speedWind from/ knotsBaromVisibWave heightAir tempDewpointWater temp
2018-May-19 22:17N 36°14' W 023°50'511.8
2018-May-19 21:53N 36°14' W 023°56'511.8
2018-May-19 21:30N 36°13' W 024°02'611.8
2018-May-19 21:00N 36°13' W 024°09'611.5
2018-May-19 20:30N 36°13' W 024°16'611.6
2018-May-19 20:00N 36°13' W 024°23'611.8
2018-May-19 19:31N 36°13' W 024°30'611.8
2018-May-19 19:00N 36°12' W 024°38'611.9
2018-May-19 18:30N 36°12' W 024°45'612.3
2018-May-19 18:01N 36°12' W 024°53'612.3
2018-May-19 17:30N 36°11' W 025°00'612.1
2018-May-19 17:00N 36°11' W 025°08'612.2
2018-May-19 16:30N 36°10' W 025°15'612.3
2018-May-19 16:00N 36°10' W 025°23'612.2
2018-May-19 15:30N 36°09' W 025°30'612.1
2018-May-19 15:00N 36°08' W 025°38'612.1
2018-May-19 14:30N 36°08' W 025°45'  
Track history (hours):
 
Tides and Currents Weather Stations Pressure Air Temp Water Temp Dewpoint Dewpoint Depression Visibility Wind Speed Wind Dir Waves Ship Positions

Front Thor

Last reported at 2018-May-19 22:17 UTC. Time now 2018-May-21 06:36 UTC.
Position N 36°14' W 023°50'.

Length 275 m; draft 16.6 m.

Type: Tanker. MMSI: 538003675.

Date/timePositionNaut miles runAvg speedWind from/ knotsBaromVisibWave heightAir tempDewpointWater temp
2018-May-19 22:17N 36°14' W 023°50'511.8
2018-May-19 21:53N 36°14' W 023°56'511.8
2018-May-19 21:30N 36°13' W 024°02'611.8
2018-May-19 21:00N 36°13' W 024°09'611.5
2018-May-19 20:30N 36°13' W 024°16'611.6
2018-May-19 20:00N 36°13' W 024°23'611.8
2018-May-19 19:31N 36°13' W 024°30'611.8
2018-May-19 19:00N 36°12' W 024°38'611.9
2018-May-19 18:30N 36°12' W 024°45'612.3
2018-May-19 18:01N 36°12' W 024°53'612.3
2018-May-19 17:30N 36°11' W 025°00'612.1
2018-May-19 17:00N 36°11' W 025°08'612.2
2018-May-19 16:30N 36°10' W 025°15'612.3
2018-May-19 16:00N 36°10' W 025°23'612.2
2018-May-19 15:30N 36°09' W 025°30'612.1
2018-May-19 15:00N 36°08' W 025°38'612.1
2018-May-19 14:30N 36°08' W 025°45'  

Dump ship's entire track history